ICE51 BIAR-BIRK
Flight info
| Callsign | ICE51 |
|---|---|
| Flight time | 0h 32m |
| Altitude | 16000 |
| Route | EXINU |
| Aircraft | DH8D/M-SDE2E3FGRY/H |
Departure
| Time | 2026-04-24 01:34 |
|---|---|
| Airport | Akureyri International Airport (BIAR) |
Arrival
| Time | 2026-04-24 02:06 |
|---|---|
| Airport | Reykjavík Domestic Airport (BIRK) |
| Time | Latitude | Longitude | Altitude | Speed | Heading |
|---|---|---|---|---|---|
| 2026-04-24 01:15 | 65.65484 | -18.07493 | -30 ft | 0 kts | 359° |
| 2026-04-24 01:30 | 65.65492 | -18.07468 | -29 ft | 7 kts | 90° |
| 2026-04-24 01:30 | 65.65477 | -18.07361 | -28 ft | 8 kts | 86° |
| 2026-04-24 01:31 | 65.65498 | -18.07195 | -27 ft | 14 kts | 38° |
| 2026-04-24 01:31 | 65.65619 | -18.07192 | -25 ft | 21 kts | 355° |
| 2026-04-24 01:31 | 65.65791 | -18.07223 | -25 ft | 27 kts | 355° |
| 2026-04-24 01:31 | 65.66000 | -18.07262 | -25 ft | 31 kts | 356° |
| 2026-04-24 01:32 | 65.66193 | -18.07301 | -25 ft | 24 kts | 355° |
| 2026-04-24 01:32 | 65.66358 | -18.07331 | -25 ft | 22 kts | 355° |
| 2026-04-24 01:32 | 65.66509 | -18.07359 | -25 ft | 20 kts | 356° |
| 2026-04-24 01:32 | 65.66647 | -18.07385 | -25 ft | 19 kts | 355° |
| 2026-04-24 01:33 | 65.66756 | -18.07405 | -25 ft | 13 kts | 356° |
| 2026-04-24 01:33 | 65.66837 | -18.07384 | -26 ft | 9 kts | 330° |
| 2026-04-24 01:33 | 65.66806 | -18.07413 | -26 ft | 11 kts | 170° |
| 2026-04-24 01:33 | 65.66693 | -18.07393 | -25 ft | 36 kts | 176° |
| 2026-04-24 01:34 | 65.66129 | -18.07284 | -25 ft | 120 kts | 175° |
| 2026-04-24 01:34 | 65.65152 | -18.07117 | 166 ft | 151 kts | 178° |
| 2026-04-24 01:34 | 65.64064 | -18.07058 | 694 ft | 163 kts | 178° |
| 2026-04-24 01:34 | 65.62916 | -18.06934 | 1335 ft | 170 kts | 177° |
| 2026-04-24 01:35 | 65.61724 | -18.06802 | 1980 ft | 177 kts | 177° |
| 2026-04-24 01:35 | 65.60477 | -18.06657 | 2605 ft | 183 kts | 177° |
| 2026-04-24 01:35 | 65.59206 | -18.06780 | 3172 ft | 187 kts | 188° |
| 2026-04-24 01:35 | 65.57923 | -18.07257 | 3730 ft | 190 kts | 189° |
| 2026-04-24 01:36 | 65.56646 | -18.08030 | 4285 ft | 192 kts | 202° |
| 2026-04-24 01:36 | 65.55429 | -18.09342 | 4854 ft | 194 kts | 205° |
| 2026-04-24 01:36 | 65.54204 | -18.10691 | 5430 ft | 195 kts | 205° |
| 2026-04-24 01:36 | 65.52969 | -18.12038 | 6001 ft | 197 kts | 205° |
| 2026-04-24 01:37 | 65.51730 | -18.13380 | 6566 ft | 198 kts | 205° |
| 2026-04-24 01:37 | 65.50474 | -18.14732 | 7126 ft | 199 kts | 205° |
| 2026-04-24 01:37 | 65.49200 | -18.16026 | 7704 ft | 200 kts | 201° |
| 2026-04-24 01:37 | 65.47833 | -18.17166 | 7948 ft | 222 kts | 200° |
| 2026-04-24 01:38 | 65.46353 | -18.18348 | 8360 ft | 230 kts | 200° |
| 2026-04-24 01:38 | 65.44821 | -18.19577 | 8875 ft | 234 kts | 200° |
| 2026-04-24 01:38 | 65.43272 | -18.20828 | 9413 ft | 238 kts | 201° |
| 2026-04-24 01:38 | 65.41704 | -18.22096 | 9963 ft | 240 kts | 201° |
| 2026-04-24 01:39 | 65.40118 | -18.23383 | 10516 ft | 243 kts | 201° |
| 2026-04-24 01:39 | 65.38526 | -18.24676 | 11067 ft | 245 kts | 201° |
| 2026-04-24 01:39 | 65.36912 | -18.25987 | 11626 ft | 248 kts | 201° |
| 2026-04-24 01:39 | 65.35281 | -18.27312 | 12191 ft | 250 kts | 201° |
| 2026-04-24 01:40 | 65.33634 | -18.28660 | 12759 ft | 252 kts | 202° |
| 2026-04-24 01:40 | 65.32181 | -18.30831 | 13268 ft | 252 kts | 228° |
| 2026-04-24 01:40 | 65.31074 | -18.34082 | 13846 ft | 255 kts | 233° |
| 2026-04-24 01:40 | 65.29984 | -18.37459 | 14426 ft | 259 kts | 233° |
| 2026-04-24 01:41 | 65.28871 | -18.40897 | 14996 ft | 263 kts | 233° |
| 2026-04-24 01:41 | 65.27750 | -18.44351 | 15522 ft | 265 kts | 233° |
| 2026-04-24 01:41 | 65.26617 | -18.47823 | 15903 ft | 269 kts | 233° |
| 2026-04-24 01:41 | 65.25431 | -18.51451 | 16047 ft | 283 kts | 233° |
| 2026-04-24 01:42 | 65.24189 | -18.55235 | 16058 ft | 297 kts | 233° |
| 2026-04-24 01:42 | 65.22890 | -18.59182 | 16079 ft | 308 kts | 233° |
| 2026-04-24 01:42 | 65.21561 | -18.63211 | 16081 ft | 317 kts | 233° |
| 2026-04-24 01:42 | 65.20186 | -18.67380 | 16100 ft | 323 kts | 233° |
| 2026-04-24 01:43 | 65.18993 | -18.71948 | 16127 ft | 327 kts | 244° |
| 2026-04-24 01:43 | 65.18037 | -18.76888 | 16146 ft | 331 kts | 246° |
| 2026-04-24 01:43 | 65.17080 | -18.81918 | 16160 ft | 335 kts | 246° |
| 2026-04-24 01:43 | 65.16125 | -18.86919 | 16172 ft | 338 kts | 246° |
| 2026-04-24 01:44 | 65.15141 | -18.92038 | 16182 ft | 341 kts | 246° |
| 2026-04-24 01:44 | 65.14148 | -18.97187 | 16190 ft | 343 kts | 246° |
| 2026-04-24 01:44 | 65.13145 | -19.02360 | 16201 ft | 345 kts | 246° |
| 2026-04-24 01:44 | 65.12148 | -19.07484 | 16202 ft | 347 kts | 246° |
| 2026-04-24 01:45 | 65.11126 | -19.12719 | 16200 ft | 348 kts | 246° |
| 2026-04-24 01:45 | 65.10113 | -19.17883 | 16199 ft | 349 kts | 246° |
| 2026-04-24 01:45 | 65.09082 | -19.23126 | 16198 ft | 350 kts | 246° |
| 2026-04-24 01:45 | 65.08056 | -19.28328 | 16196 ft | 350 kts | 246° |
| 2026-04-24 01:46 | 65.07025 | -19.33539 | 16204 ft | 349 kts | 246° |
| 2026-04-24 01:46 | 65.05991 | -19.38750 | 16215 ft | 349 kts | 246° |
| 2026-04-24 01:46 | 65.04971 | -19.43881 | 16228 ft | 349 kts | 246° |
| 2026-04-24 01:46 | 65.03935 | -19.49078 | 16239 ft | 348 kts | 246° |
| 2026-04-24 01:47 | 65.02896 | -19.54278 | 16272 ft | 349 kts | 246° |
| 2026-04-24 01:47 | 65.01853 | -19.59479 | 16276 ft | 350 kts | 246° |
| 2026-04-24 01:47 | 65.00816 | -19.64634 | 16269 ft | 352 kts | 246° |
| 2026-04-24 01:47 | 64.99752 | -19.69923 | 16261 ft | 353 kts | 245° |
| 2026-04-24 01:48 | 64.98689 | -19.75188 | 16251 ft | 355 kts | 245° |
| 2026-04-24 01:48 | 64.97630 | -19.80411 | 16225 ft | 356 kts | 245° |
| 2026-04-24 01:48 | 64.96559 | -19.85683 | 16196 ft | 357 kts | 245° |
| 2026-04-24 01:48 | 64.95477 | -19.90996 | 16169 ft | 358 kts | 245° |
| 2026-04-24 01:49 | 64.94395 | -19.96296 | 16142 ft | 358 kts | 245° |
| 2026-04-24 01:49 | 64.93326 | -20.01518 | 16094 ft | 358 kts | 245° |
| 2026-04-24 01:49 | 64.92246 | -20.06778 | 16071 ft | 355 kts | 245° |
| 2026-04-24 01:49 | 64.91167 | -20.12025 | 16083 ft | 352 kts | 245° |
| 2026-04-24 01:50 | 64.90101 | -20.17197 | 16105 ft | 350 kts | 245° |
| 2026-04-24 01:50 | 64.89053 | -20.22266 | 16131 ft | 347 kts | 246° |
| 2026-04-24 01:50 | 64.87996 | -20.27372 | 16191 ft | 346 kts | 246° |
| 2026-04-24 01:50 | 64.86938 | -20.32473 | 16218 ft | 347 kts | 246° |
| 2026-04-24 01:51 | 64.85879 | -20.37565 | 16224 ft | 348 kts | 246° |
| 2026-04-24 01:51 | 64.84808 | -20.42696 | 16223 ft | 350 kts | 246° |
| 2026-04-24 01:51 | 64.83735 | -20.47828 | 16215 ft | 351 kts | 246° |
| 2026-04-24 01:51 | 64.82666 | -20.52926 | 16169 ft | 352 kts | 246° |
| 2026-04-24 01:52 | 64.81589 | -20.58052 | 16172 ft | 350 kts | 246° |
| 2026-04-24 01:52 | 64.80518 | -20.63140 | 16195 ft | 347 kts | 246° |
| 2026-04-24 01:52 | 64.79436 | -20.68261 | 16220 ft | 345 kts | 245° |
| 2026-04-24 01:52 | 64.78375 | -20.73271 | 16291 ft | 344 kts | 245° |
| 2026-04-24 01:53 | 64.77304 | -20.78316 | 16317 ft | 345 kts | 245° |
| 2026-04-24 01:53 | 64.76244 | -20.83289 | 16190 ft | 342 kts | 245° |
| 2026-04-24 01:53 | 64.75182 | -20.88252 | 15870 ft | 336 kts | 245° |
| 2026-04-24 01:53 | 64.74151 | -20.93061 | 15500 ft | 332 kts | 245° |
| 2026-04-24 01:54 | 64.73119 | -20.97865 | 15113 ft | 330 kts | 245° |
| 2026-04-24 01:54 | 64.72093 | -21.02638 | 14722 ft | 327 kts | 245° |
| 2026-04-24 01:54 | 64.71071 | -21.07381 | 14318 ft | 324 kts | 245° |
| 2026-04-24 01:54 | 64.70067 | -21.12030 | 13934 ft | 321 kts | 245° |
| 2026-04-24 01:55 | 64.69058 | -21.16686 | 13553 ft | 318 kts | 245° |
| 2026-04-24 01:55 | 64.68057 | -21.21298 | 13173 ft | 315 kts | 245° |
| 2026-04-24 01:55 | 64.67060 | -21.25870 | 12498 ft | 317 kts | 244° |
| 2026-04-24 01:55 | 64.65810 | -21.29913 | 12036 ft | 307 kts | 226° |
| 2026-04-24 01:56 | 64.64214 | -21.33109 | 11672 ft | 299 kts | 221° |
| 2026-04-24 01:56 | 64.62631 | -21.36165 | 11318 ft | 292 kts | 221° |
| 2026-04-24 01:56 | 64.61080 | -21.39143 | 10970 ft | 286 kts | 221° |
| 2026-04-24 01:56 | 64.59554 | -21.42071 | 10630 ft | 280 kts | 221° |
| 2026-04-24 01:57 | 64.58087 | -21.44885 | 10304 ft | 274 kts | 221° |
| 2026-04-24 01:57 | 64.56625 | -21.47688 | 9978 ft | 269 kts | 221° |
| 2026-04-24 01:57 | 64.55192 | -21.50436 | 9647 ft | 265 kts | 222° |
| 2026-04-24 01:57 | 64.53782 | -21.53136 | 9334 ft | 259 kts | 222° |
| 2026-04-24 01:58 | 64.52415 | -21.55748 | 9035 ft | 255 kts | 222° |
| 2026-04-24 01:58 | 64.51050 | -21.58357 | 8741 ft | 251 kts | 222° |
| 2026-04-24 01:58 | 64.49711 | -21.60911 | 8463 ft | 247 kts | 222° |
| 2026-04-24 01:58 | 64.48390 | -21.63430 | 8178 ft | 244 kts | 222° |
| 2026-04-24 01:59 | 64.47079 | -21.65924 | 7891 ft | 242 kts | 221° |
| 2026-04-24 01:59 | 64.45786 | -21.68385 | 7606 ft | 240 kts | 221° |
| 2026-04-24 01:59 | 64.44502 | -21.70823 | 7321 ft | 238 kts | 221° |
| 2026-04-24 01:59 | 64.43255 | -21.73293 | 7037 ft | 236 kts | 226° |
| 2026-04-24 02:00 | 64.42143 | -21.76060 | 6759 ft | 233 kts | 230° |
| 2026-04-24 02:00 | 64.41071 | -21.78865 | 6486 ft | 232 kts | 230° |
| 2026-04-24 02:00 | 64.40009 | -21.81619 | 6219 ft | 231 kts | 230° |
| 2026-04-24 02:00 | 64.38947 | -21.84398 | 5949 ft | 229 kts | 230° |
| 2026-04-24 02:01 | 64.37897 | -21.87136 | 5678 ft | 228 kts | 230° |
| 2026-04-24 02:01 | 64.36838 | -21.89904 | 5407 ft | 227 kts | 231° |
| 2026-04-24 02:01 | 64.35789 | -21.92622 | 5147 ft | 226 kts | 230° |
| 2026-04-24 02:01 | 64.34756 | -21.95287 | 4874 ft | 225 kts | 229° |
| 2026-04-24 02:02 | 64.33475 | -21.97379 | 4504 ft | 231 kts | 200° |
| 2026-04-24 02:02 | 64.31875 | -21.97658 | 4209 ft | 233 kts | 177° |
| 2026-04-24 02:02 | 64.30280 | -21.97276 | 3974 ft | 230 kts | 176° |
| 2026-04-24 02:02 | 64.28687 | -21.96864 | 3627 ft | 233 kts | 175° |
| 2026-04-24 02:03 | 64.25598 | -21.96136 | 2920 ft | 216 kts | 177° |
| 2026-04-24 02:03 | 64.24110 | -21.95884 | 2542 ft | 210 kts | 177° |
| 2026-04-24 02:03 | 64.22710 | -21.95651 | 2182 ft | 193 kts | 176° |
| 2026-04-24 02:04 | 64.21445 | -21.95407 | 1954 ft | 174 kts | 176° |
| 2026-04-24 02:04 | 64.20297 | -21.95172 | 1715 ft | 157 kts | 176° |
| 2026-04-24 02:04 | 64.19246 | -21.94963 | 1386 ft | 146 kts | 176° |
| 2026-04-24 02:04 | 64.18287 | -21.94777 | 1116 ft | 130 kts | 176° |
| 2026-04-24 02:05 | 64.17412 | -21.94621 | 964 ft | 123 kts | 178° |
| 2026-04-24 02:05 | 64.16576 | -21.94468 | 804 ft | 119 kts | 178° |
| 2026-04-24 02:05 | 64.15757 | -21.94306 | 596 ft | 118 kts | 176° |
| 2026-04-24 02:05 | 64.14934 | -21.94130 | 373 ft | 119 kts | 176° |
| 2026-04-24 02:06 | 64.14117 | -21.93984 | 189 ft | 119 kts | 177° |
| 2026-04-24 02:06 | 64.13298 | -21.93829 | 42 ft | 115 kts | 176° |
| 2026-04-24 02:06 | 64.12787 | -21.93732 | 35 ft | 23 kts | 175° |
| 2026-04-24 02:06 | 64.12693 | -21.93724 | 32 ft | 8 kts | 89° |
| 2026-04-24 02:07 | 64.12772 | -21.93718 | 35 ft | 15 kts | 348° |
| 2026-04-24 02:07 | 64.12891 | -21.93753 | 38 ft | 19 kts | 355° |
| 2026-04-24 02:07 | 64.13024 | -21.93778 | 41 ft | 20 kts | 355° |
| 2026-04-24 02:07 | 64.13149 | -21.93860 | 44 ft | 16 kts | 288° |
| 2026-04-24 02:08 | 64.13143 | -21.94088 | 43 ft | 13 kts | 263° |
| 2026-04-24 02:08 | 64.13133 | -21.94291 | 41 ft | 12 kts | 263° |
| 2026-04-24 02:08 | 64.13123 | -21.94486 | 39 ft | 11 kts | 263° |
| 2026-04-24 02:08 | 64.13123 | -21.94649 | 38 ft | 8 kts | 311° |
| 2026-04-24 02:09 | 64.13155 | -21.94616 | 39 ft | 0 kts | 82° |